Reston, VA

7:31 AM EDT on August 31, 2015 (GMT -0400)
APRSWXNET | | Change Station
CLOSE
Current Station
Personal Weather Station
Location: Herndon, VA
Elevation: 400 ft
Nearby Weather Stations

Elev 400 ft 38.95 °N, 77.32 °W | Updated 34 minutes ago

Overcast
Overcast
73 °F
Feels Like 72 °F
N
0
Wind Variable Wind from WSW
Gusts 0.0 mph

Today
High -- | Low -- °F
--% Chance of Precip.
Yesterday
High -- | Low -- °F
Precip. -- in
6:37 AM 7:41 PM
Waning Gibbous, 96% visible
Pressure 30.08 in
Visibility 10.0 miles
Clouds Scattered Clouds 11000 ft
Overcast 20000 ft
Heat Index 72 °F
Dew Point 68 °F
Humidity 84%
Rainfall in
Snow Depth Not available.
UV 0 out of 12
Pollen 10.10 out of 12
Air Quality Not available.
Flu Activity Not available.
METAR KIAD 311052Z 00000KT 10SM SCT110 OVC200 21/19 A3008 RMK AO2 SLP184 T02110189
Pressure 30.08 in
Visibility 10.0 miles
Clouds Scattered Clouds 11000 ft
Overcast 20000 ft
Heat Index 72 °F
Dew Point 68 °F
Humidity 84%
Rainfall in
Snow Depth Not available.
UV 0 out of 12
Pollen 10.10 out of 12
Air Quality Not available.
Flu Activity Not available.
METAR KIAD 311052Z 00000KT 10SM SCT110 OVC200 21/19 A3008 RMK AO2 SLP184 T02110189

10-Day Weather Forecast

×

Almanac

Astronomy

Aug. 31, 2015 Rise Set
Actual Time
Civil Twilight
Nautical Twilight
Astronomical Twilight
Moon
Length of Visible Light
Length of Day
Tomorrow will be .
, % of the Moon is Illuminated

Today's Extremes

State Highs State Lows

Community

WunderPhotos

Upload Photos

1,851,219 photos uploaded!

WunderBlogs® & News

Nearby

Air Quality

  Air Quality AQ Index Pollutant
Not available.

Snow Depth

Station Depth Elevation

Earthquake Activity

City Distance Mag. Time & Date
Minimum magnitude displayed is 2.5.

Coastal Water Temperatures

Place Temperature

Stations

Nearby Weather Stations

Station Location Temp. Windchill Dew Point Humidity Wind Precip. Elev Updated Type